createdAt,value
2019-01-15T04:06:34.339Z,5.10
2019-01-15T04:09:15.032Z,3.80
2019-01-15T04:11:56.288Z,3.80
2019-01-15T04:14:37.533Z,3.70
2019-01-15T04:17:18.164Z,3.60
2019-01-15T04:19:59.459Z,3.60
2019-01-15T04:22:40.291Z,3.50
2019-01-15T04:25:20.206Z,3.50
2019-01-15T04:28:00.880Z,3.50
2019-01-15T04:30:42.058Z,3.60
2019-01-15T04:33:22.720Z,3.70
2019-01-15T04:36:03.662Z,3.80
2019-01-15T04:38:45.453Z,3.80
2019-01-15T04:41:26.758Z,3.90
2019-01-15T04:44:08.107Z,4.00
2019-01-15T04:46:49.459Z,4.10
2019-01-15T04:49:30.621Z,4.10
2019-01-15T04:52:11.717Z,4.20
2019-01-15T04:54:52.404Z,4.20
2019-01-15T04:57:33.720Z,4.20
2019-01-15T05:00:14.897Z,4.10
2019-01-15T05:02:57.361Z,4.10
2019-01-15T05:05:38.282Z,4.10
2019-01-15T05:08:19.820Z,4.00
2019-01-15T05:11:01.334Z,4.00
2019-01-15T05:13:42.507Z,3.90
2019-01-15T05:16:22.037Z,3.90
2019-01-15T05:22:10.271Z,3.90
2019-01-15T05:24:51.549Z,3.90
2019-01-15T05:27:32.427Z,3.80
2019-01-15T05:30:13.173Z,3.90
2019-01-15T05:32:54.673Z,4.00
2019-01-15T05:35:36.177Z,4.10
2019-01-15T05:38:17.444Z,4.10
2019-01-15T05:40:58.039Z,4.20
2019-01-15T05:43:38.769Z,4.20
2019-01-15T05:46:19.621Z,4.20
2019-01-15T05:49:00.931Z,4.30
2019-01-15T05:51:43.699Z,4.30
2019-01-15T05:54:24.403Z,4.30
2019-01-15T05:57:05.097Z,4.30
2019-01-15T05:59:45.955Z,4.30
2019-01-15T06:02:27.110Z,4.40
2019-01-15T06:05:08.436Z,4.50
2019-01-15T06:07:49.340Z,4.50
2019-01-15T06:10:30.162Z,4.60
2019-01-15T06:13:10.699Z,4.60
2019-01-15T06:15:51.896Z,4.50
2019-01-15T06:18:32.587Z,4.40
2019-01-15T06:21:13.733Z,4.40
2019-01-15T06:23:54.675Z,4.40
2019-01-15T06:26:35.510Z,4.40
2019-01-15T06:29:16.810Z,4.40
2019-01-15T06:31:58.245Z,4.40
2019-01-15T06:34:38.422Z,4.40
2019-01-15T06:37:19.175Z,4.40
2019-01-15T06:40:00.471Z,4.40
2019-01-15T06:42:40.976Z,4.40
2019-01-15T06:45:21.535Z,4.40
2019-01-15T06:48:02.685Z,4.40
2019-01-15T06:50:44.027Z,4.40
2019-01-15T06:53:25.431Z,4.40
2019-01-15T06:56:06.039Z,4.40
2019-01-15T06:58:47.331Z,4.40
2019-01-15T07:01:28.857Z,4.40
2019-01-15T07:04:10.030Z,4.40
2019-01-15T07:06:51.444Z,4.40
2019-01-15T07:09:32.252Z,4.40
2019-01-15T07:12:13.646Z,4.40
2019-01-15T07:14:54.381Z,4.30
2019-01-15T07:17:33.843Z,4.30
2019-01-15T07:20:15.008Z,4.30
2019-01-15T07:22:55.690Z,4.30
2019-01-15T07:25:36.834Z,4.30
2019-01-15T07:28:18.397Z,4.30
2019-01-15T07:30:59.821Z,4.30
2019-01-15T07:33:40.586Z,4.40
2019-01-15T07:36:21.499Z,4.40
2019-01-15T07:39:01.307Z,4.50
2019-01-15T07:41:42.505Z,4.50
2019-01-15T07:44:23.479Z,4.50
2019-01-15T07:47:04.598Z,4.50
2019-01-15T07:49:46.151Z,4.50
2019-01-15T07:52:27.309Z,4.50
2019-01-15T07:55:07.280Z,4.50
2019-01-15T07:57:48.120Z,4.60
2019-01-15T08:00:29.415Z,4.60
2019-01-15T08:03:10.548Z,4.60
2019-01-15T08:05:52.003Z,4.70
2019-01-15T08:08:33.037Z,4.70
2019-01-15T08:11:14.343Z,4.70
2019-01-15T08:13:55.671Z,4.80
2019-01-15T08:16:36.884Z,4.80
2019-01-15T08:19:18.198Z,4.90
2019-01-15T08:21:59.277Z,5.00
2019-01-15T08:24:40.223Z,5.10
2019-01-15T08:27:21.562Z,5.10
2019-01-15T08:30:02.623Z,5.20
2019-01-15T08:32:43.653Z,5.20
2019-01-15T08:35:25.061Z,5.30
2019-01-15T08:38:06.176Z,5.40
2019-01-15T08:40:46.932Z,5.50
2019-01-15T08:43:28.064Z,5.50
2019-01-15T08:46:08.737Z,5.60
2019-01-15T08:48:50.171Z,5.70
2019-01-15T08:51:30.883Z,5.70
2019-01-15T08:54:11.369Z,5.70
2019-01-15T08:56:52.775Z,5.80
2019-01-15T08:59:34.019Z,5.80
2019-01-15T09:02:15.107Z,5.80
2019-01-15T09:04:56.799Z,5.70
2019-01-15T09:07:37.743Z,5.80
2019-01-15T09:10:18.579Z,5.70
2019-01-15T09:12:59.607Z,5.80
2019-01-15T09:15:39.117Z,5.80
2019-01-15T09:18:19.977Z,5.80
2019-01-15T09:21:00.808Z,5.90
2019-01-15T09:23:41.917Z,5.90
2019-01-15T09:26:22.880Z,5.90
2019-01-15T09:29:03.661Z,6.00
2019-01-15T09:31:45.213Z,6.00
2019-01-15T09:34:26.493Z,6.10
2019-01-15T09:37:09.658Z,6.10
2019-01-15T10:15:33.400Z,6.10
2019-01-15T10:18:14.849Z,6.80
2019-01-15T10:20:55.537Z,6.90
2019-01-15T10:23:36.492Z,6.90
2019-01-15T10:26:17.221Z,6.90
2019-01-15T10:34:35.483Z,7.00
2019-01-15T10:37:16.119Z,7.10
2019-01-15T10:39:56.781Z,7.20
2019-01-15T10:42:37.524Z,7.20
2019-01-15T10:45:19.314Z,7.20
2019-01-15T10:48:00.207Z,7.30
2019-01-15T10:50:41.168Z,7.20
2019-01-15T10:53:21.876Z,7.30
2019-01-15T10:56:03.199Z,7.30
2019-01-15T13:30:18.564Z,7.40
2019-01-15T13:33:24.465Z,7.80
2019-01-15T13:36:26.927Z,7.90
2019-01-15T13:39:26.686Z,7.90
2019-01-15T13:42:26.931Z,7.90
2019-01-15T13:45:26.661Z,7.90
2019-01-15T13:48:17.120Z,7.90
2019-01-15T13:51:16.226Z,7.90
2019-01-15T13:54:22.197Z,7.90
2019-01-15T13:57:22.425Z,7.90
2019-01-15T14:00:15.067Z,7.80
2019-01-15T14:03:13.450Z,7.80
2019-01-15T14:06:12.998Z,7.90
2019-01-15T14:09:12.537Z,7.80
2019-01-15T14:12:12.449Z,7.80
2019-01-15T14:15:12.766Z,7.80
2019-01-15T14:18:01.037Z,7.70
2019-01-15T14:21:08.411Z,7.70
2019-01-15T14:24:11.858Z,7.70
2019-01-15T14:27:12.055Z,7.70
2019-01-15T14:30:04.985Z,7.60
2019-01-15T14:33:12.365Z,7.60
2019-01-15T14:36:12.352Z,7.60
2019-01-15T14:39:11.914Z,7.60
2019-01-15T14:42:15.340Z,7.50
2019-01-15T14:45:11.713Z,7.50
2019-01-15T14:48:11.261Z,7.40
2019-01-15T14:51:17.592Z,7.40
2019-01-15T14:54:17.209Z,7.40
2019-01-15T14:57:12.011Z,7.40
2019-01-15T15:00:12.321Z,7.30
2019-01-15T15:03:05.522Z,7.30
2019-01-15T15:06:05.775Z,7.20
2019-01-15T15:09:05.310Z,7.10
2019-01-15T15:11:59.702Z,7.10
2019-01-15T15:14:59.969Z,7.10
2019-01-15T15:17:58.821Z,7.10
2019-01-15T15:21:05.192Z,7.00
2019-01-15T15:24:08.064Z,7.00
2019-01-15T15:26:58.430Z,6.90
2019-01-15T15:30:04.538Z,6.90
2019-01-15T15:33:03.522Z,6.80
2019-01-15T15:36:03.706Z,6.70
2019-01-15T15:42:28.593Z,6.60
2019-01-15T15:45:28.765Z,6.50
2019-01-15T15:48:28.023Z,6.40
2019-01-15T15:51:27.702Z,6.40
2019-01-15T15:54:28.041Z,6.30
2019-01-15T15:57:28.173Z,6.30
2019-01-15T16:03:29.018Z,6.20
2019-01-15T16:06:24.007Z,6.20
2019-01-15T16:39:09.287Z,5.80
2019-01-15T17:17:57.298Z,5.60
2019-01-15T17:20:57.439Z,5.00
2019-01-15T17:23:56.177Z,5.00
2019-01-15T17:27:03.494Z,4.90
2019-01-15T17:30:03.304Z,4.90
2019-01-15T17:33:04.414Z,4.90
2019-01-15T17:36:10.191Z,4.80
2019-01-15T17:39:10.014Z,4.80
2019-01-15T17:42:16.036Z,4.70
2019-01-15T17:45:16.129Z,4.70
2019-01-15T17:48:22.108Z,4.60
2019-01-15T17:51:21.735Z,4.60
2019-01-15T17:57:20.345Z,4.60
2019-01-15T18:03:36.030Z,4.50
2019-01-15T18:06:36.731Z,4.50
2019-01-15T18:09:37.054Z,4.50
2019-01-15T18:12:36.695Z,4.50
2019-01-15T18:15:30.877Z,4.40
2019-01-15T18:18:30.536Z,4.40
2019-01-15T18:21:36.258Z,4.40
2019-01-15T18:24:36.972Z,4.50
2019-01-15T18:27:36.590Z,4.60
2019-01-15T18:30:42.067Z,4.60
2019-01-15T18:33:41.963Z,4.60
2019-01-15T18:36:41.836Z,4.60
2019-01-15T18:39:40.809Z,4.60
2019-01-15T18:42:48.099Z,4.60
2019-01-15T18:45:47.585Z,4.70
2019-01-15T18:48:47.129Z,4.70
2019-01-15T18:51:46.801Z,4.70
2019-01-15T18:54:46.287Z,4.70
2019-01-15T18:57:46.699Z,4.80
2019-01-15T19:00:47.130Z,4.70
2019-01-15T19:03:47.555Z,4.80
2019-01-15T19:06:47.788Z,4.70
2019-01-15T19:09:54.059Z,4.70
2019-01-15T19:12:42.694Z,4.70
2019-01-15T19:15:38.008Z,4.70
2019-01-15T19:18:37.658Z,4.70
2019-01-15T19:21:37.408Z,4.70
2019-01-15T19:24:37.099Z,4.70
2019-01-15T19:27:36.959Z,4.70
2019-01-15T19:30:43.075Z,4.60
2019-01-15T19:33:42.654Z,4.60
2019-01-15T19:36:37.821Z,4.60
2019-01-15T19:39:37.526Z,4.60
2019-01-15T19:45:56.558Z,4.60
2019-01-15T19:48:56.229Z,4.60
2019-01-15T19:51:55.708Z,4.70
2019-01-15T19:54:55.500Z,4.70
2019-01-15T20:03:54.860Z,4.60
2019-01-15T20:07:00.877Z,4.60
2019-01-15T20:10:01.264Z,4.60
2019-01-15T20:13:00.940Z,4.60
2019-01-15T20:16:01.270Z,4.60
2019-01-15T20:19:03.782Z,4.60
2019-01-15T20:22:09.299Z,4.60
2019-01-15T20:24:59.076Z,4.60
2019-01-15T20:28:02.520Z,4.60
2019-01-15T20:31:02.856Z,4.60
2019-01-15T20:34:01.920Z,4.50
2019-01-15T20:37:01.583Z,4.50
2019-01-15T20:40:01.149Z,4.40
2019-01-15T20:43:01.116Z,4.40
2019-01-15T20:45:57.026Z,4.30
2019-01-15T20:57:52.018Z,4.20
2019-01-15T21:00:58.233Z,4.00
2019-01-15T21:03:58.282Z,4.00
2019-01-15T21:09:42.841Z,3.90
2019-01-15T21:12:45.666Z,3.90
2019-01-15T21:15:51.386Z,3.80
2019-01-15T21:18:57.964Z,3.80
2019-01-15T21:21:46.719Z,3.70
2019-01-15T21:24:54.157Z,3.60
2019-01-15T21:27:54.600Z,3.60
2019-01-15T21:30:54.367Z,3.50
2019-01-15T21:33:52.930Z,3.40
2019-01-15T21:36:58.616Z,3.40
2019-01-15T21:40:01.677Z,3.30
2019-01-15T21:43:01.208Z,3.30
2019-01-15T21:45:55.754Z,3.20
2019-01-15T21:48:55.842Z,3.20
2019-01-15T21:52:01.421Z,3.20
2019-01-15T21:55:01.474Z,3.20
2019-01-15T21:58:04.562Z,3.10
2019-01-15T22:01:07.737Z,3.10
2019-01-15T22:04:07.359Z,3.10
2019-01-15T22:07:07.733Z,3.10
2019-01-15T22:10:07.443Z,3.10
2019-01-15T22:13:07.625Z,3.00
2019-01-15T22:16:07.142Z,3.00
2019-01-15T22:19:14.450Z,3.00
2019-01-15T22:22:14.279Z,3.00
2019-01-15T22:25:13.846Z,3.00
2019-01-15T22:28:13.760Z,3.00
2019-01-15T22:31:13.364Z,2.90
2019-01-15T22:34:12.934Z,2.90
2019-01-15T22:37:12.499Z,2.90
2019-01-15T22:43:19.118Z,2.90
2019-01-15T22:46:19.457Z,2.90
2019-01-15T22:49:19.092Z,2.90
2019-01-15T22:52:18.836Z,2.90
2019-01-15T23:01:23.344Z,2.80
2019-01-15T23:04:23.456Z,2.80
2019-01-15T23:07:24.658Z,2.80
2019-01-15T23:10:31.256Z,2.80
2019-01-15T23:13:31.000Z,2.70
2019-01-15T23:16:23.661Z,2.70
2019-01-15T23:19:24.903Z,2.70
2019-01-15T23:22:24.892Z,2.60
2019-01-15T23:25:24.641Z,2.70
2019-01-15T23:28:27.320Z,2.60
2019-01-15T23:34:29.971Z,2.60
2019-01-15T23:37:33.087Z,2.50
2019-01-15T23:43:53.007Z,2.50
2019-01-15T23:46:53.304Z,2.40
2019-01-15T23:52:56.297Z,2.50
2019-01-15T23:55:58.536Z,2.50
2019-01-15T23:58:58.281Z,2.50
